Flight Track Log - Related Links

Times and Time Zones

All times are in EDT time to prevent confusion due to time zone crossing. See the N450S flight status page for this flight to view local times or setup timezone preferences in your user account.

Time Position Orientation Groundspeed Altitude Reporting Facility
EDT Latitude Longitude Course Direction KTS MPH feet Rate Location/Type
Thu 02:52:10 PM 41.4300 -82.6878 264° West 134 154 1,700  Level Cleveland Center
Thu 02:52:40 PM 41.4272 -82.7239 276° West 144 166 2,500 1,546 Climbing Cleveland Center
Thu 02:53:47 PM 41.4322 -82.7878 271° West 178 205 4,200 1,323 Climbing Cleveland Center
Thu 02:54:47 PM 41.4331 -82.8514 273° West 180 207 5,300 950 Climbing Cleveland Center
Thu 02:55:47 PM 41.4358 -82.9236 266° West 172 198 6,100 1,050 Climbing Cleveland Center
Thu 02:56:47 PM 41.4322 -82.9928 273° West 186 214 7,400 1,250 Climbing Cleveland Center
Thu 02:57:47 PM 41.4350 -83.0592 271° West 186 214 8,600 1,300 Climbing Cleveland Center
Thu 02:58:47 PM 41.4356 -83.1258 276° West 186 214 10,000 1,250 Climbing Cleveland Center
Thu 02:59:47 PM 41.4406 -83.1869 271° West 186 214 11,100 1,250 Climbing Cleveland Center
Thu 03:00:47 PM 41.4411 -83.2506 272° West 181 208 12,500 1,250 Climbing Cleveland Center
Thu 03:01:47 PM 41.4433 -83.3256 272° West 181 208 13,600 1,133 Climbing Cleveland Center
Thu 03:03:47 PM 41.4464 -83.4642 270° West 181 208 15,900 1,133 Climbing Cleveland Center
Thu 03:04:47 PM 41.4467 -83.5364 275° West 187 215 17,000 1,000 Climbing Cleveland Center
Thu 03:05:47 PM 41.4511 -83.6058 283° West 192 221 17,900 950 Climbing Cleveland Center
Thu 03:06:47 PM 41.4636 -83.6783 297° West 197 227 18,900 1,050 Climbing Cleveland Center
Thu 03:07:47 PM 41.4889 -83.7433 296° West 197 227 20,000 950 Climbing Cleveland Center
Thu 03:08:47 PM 41.5142 -83.8111 298° West 202 232 20,800 750 Climbing Cleveland Center
Thu 03:09:47 PM 41.5375 -83.8706 295° West 202 232 21,500 600 Climbing Cleveland Center
Thu 03:10:47 PM 41.5625 -83.9414 298° West 202 232 22,000 250 Climbing Cleveland Center
Thu 03:11:47 PM 41.5917 -84.0150 295° West 215 247 22,000  Level Cleveland Center
Thu 03:12:47 PM 41.6206 -84.0972 296° West 233 268 22,000  Level Cleveland Center
Thu 03:13:47 PM 41.6511 -84.1794 297° West 239 275 22,000  Level Cleveland Center
Thu 03:14:47 PM 41.6839 -84.2647 294° West 239 275 22,000  Level Cleveland Center
Thu 03:15:47 PM 41.7106 -84.3469 297° West 239 275 22,000  Level Cleveland Center
Thu 03:16:47 PM 41.7411 -84.4267 296° West 239 275 22,000  Level Cleveland Center
Thu 03:17:47 PM 41.7717 -84.5092 296° West 244 281 22,000  Level Cleveland Center
Thu 03:18:47 PM 41.8022 -84.5919 290° West 244 281 22,000  Level Cleveland Center
Thu 03:21:07 PM 41.8556 -84.7939 288° West 243 280 22,000  Level Chicago Center
Thu 03:22:07 PM 41.8756 -84.8761 286° West 238 274 22,000  Level Chicago Center
Thu 03:23:07 PM 41.8906 -84.9450 289° West 243 280 22,000  Level Chicago Center
Thu 03:24:07 PM 41.9153 -85.0408 278° West 243 280 22,000  Level Chicago Center
Thu 03:25:07 PM 41.9247 -85.1297 278° West 243 280 22,000  Level Chicago Center
Thu 03:26:07 PM 41.9342 -85.2156 278° West 238 274 22,000  Level Chicago Center
Thu 03:27:07 PM 41.9436 -85.3044 280° West 238 274 22,000  Level Chicago Center
Thu 03:28:07 PM 41.9550 -85.3903 280° West 238 274 22,000  Level Chicago Center
Thu 03:29:07 PM 41.9664 -85.4817 278° West 238 274 22,000  Level Chicago Center
Thu 03:30:07 PM 41.9756 -85.5733 276° West 238 274 22,000  Level Chicago Center
Thu 03:31:07 PM 41.9825 -85.6597 280° West 238 274 22,000  Level Chicago Center
Thu 03:32:08 PM 41.9936 -85.7428 278° West 238 274 22,000  Level Chicago Center
Thu 03:33:07 PM 42.0025 -85.8289 280° West 238 274 22,000  Level Chicago Center
Thu 03:34:07 PM 42.0136 -85.9150 278° West 238 274 22,000  Level Chicago Center
Thu 03:35:07 PM 42.0219 -85.9928 278° West 238 274 22,000  Level Chicago Center
Thu 03:36:07 PM 42.0308 -86.0789 280° West 238 274 22,000  Level Chicago Center
Thu 03:37:07 PM 42.0417 -86.1650 278° West 238 274 22,000  Level Chicago Center
Thu 03:38:08 PM 42.0500 -86.2486 277° West 238 274 22,000  Level Chicago Center
Thu 03:39:07 PM 42.0586 -86.3378 280° West 238 274 22,000  Level Chicago Center
Thu 03:40:07 PM 42.0692 -86.4211 277° West 238 274 22,000  Level Chicago Center
Thu 03:41:08 PM 42.0781 -86.5186 277° West 238 274 22,000  Level Chicago Center
Thu 03:42:07 PM 42.0861 -86.6022 281° West 238 274 22,000  Level Chicago Center
Thu 03:43:08 PM 42.0989 -86.6942 277° West 238 274 22,000  Level Chicago Center
Thu 03:44:08 PM 42.1069 -86.7806 279° West 243 280 22,000  Level Chicago Center
Thu 03:45:08 PM 42.1172 -86.8669 276° West 238 274 22,000  Level Chicago Center
Thu 03:46:08 PM 42.1233 -86.9506 279° West 238 274 22,000  Level Chicago Center
Thu 03:47:08 PM 42.1333 -87.0400 277° West 238 274 22,000  Level Chicago Center
Thu 03:48:08 PM 42.1414 -87.1236 279° West 238 274 22,000  Level Chicago Center
Thu 03:49:07 PM 42.1514 -87.2100 275° West 238 274 22,000  Level Chicago Center
Thu 03:50:08 PM 42.1569 -87.2883 279° West 238 274 22,000  Level Chicago Center
Thu 03:51:08 PM 42.1667 -87.3750 278° West 238 274 22,000  Level Chicago Center
Thu 03:52:07 PM 42.1767 -87.4669 276° West 238 274 22,000  Level Chicago Center
Thu 03:53:07 PM 42.1844 -87.5650 277° West 238 274 22,000  Level Chicago Center
Thu 03:54:07 PM 42.1919 -87.6461 278° West 238 274 22,000  Level Chicago Center
Thu 03:55:07 PM 42.2017 -87.7383 278° West 243 280 22,000  Level Chicago Center
Thu 03:56:08 PM 42.2111 -87.8278 276° West 243 280 22,000  Level Chicago Center
Thu 03:57:08 PM 42.2186 -87.9200 286° West 249 287 22,000  Level Chicago Center
Thu 03:58:08 PM 42.2364 -88.0067 292° West 249 287 22,000  Level Chicago Center
Thu 03:59:08 PM 42.2622 -88.0931 292° West 249 287 22,000  Level Chicago Center
Thu 04:00:08 PM 42.2883 -88.1794 290° West 249 287 22,000  Level Chicago Center
Thu 04:01:08 PM 42.3119 -88.2661 296° West 249 287 22,000  Level Chicago Center
Thu 04:02:08 PM 42.3419 -88.3497 290° West 235 270 22,000  Level Chicago Center
Thu 04:03:08 PM 42.3656 -88.4367 292° West 235 270 22,000  Level Chicago Center
Thu 04:04:07 PM 42.3892 -88.5178 292° West 235 270 22,000  Level Chicago Center
Thu 04:05:08 PM 42.4147 -88.6019 290° West 235 270 22,000  Level Chicago Center
Thu 04:06:07 PM 42.4361 -88.6831 293° West 235 270 22,000  Level Chicago Center
Thu 04:07:07 PM 42.4614 -88.7644 291° West 230 265 22,000  Level Chicago Center
Thu 04:08:07 PM 42.4850 -88.8486 290° West 230 265 22,000  Level Chicago Center
Thu 04:09:07 PM 42.5081 -88.9331 292° West 236 272 22,000  Level Chicago Center
Thu 04:10:08 PM 42.5333 -89.0175 291° West 236 272 22,000  Level Chicago Center
Thu 04:11:07 PM 42.5567 -89.0989 311° West 241 277 22,000  Level Chicago Center
Thu 04:12:07 PM 42.6025 -89.1694 315° West 236 272 22,000  Level Chicago Center
Thu 04:13:07 PM 42.6525 -89.2369 315° West 249 287 22,000  Level Chicago Center
Thu 04:14:07 PM 42.7047 -89.3075 314° West 254 292 22,000  Level Chicago Center
Thu 04:15:08 PM 42.7506 -89.3725 315° West 254 292 22,000  Level Chicago Center
Thu 04:16:07 PM 42.8006 -89.4403 313° West 249 287 22,000 -150 Level Chicago Center
Thu 04:17:08 PM 42.8486 -89.5114 316° Northwest 249 287 21,700 -700 Descending Chicago Center
Thu 04:18:07 PM 42.9025 -89.5822 316° Northwest 262 302 20,600 -1,160 Descending Chicago Center
Thu 04:19:07 PM 42.9503 -89.6447 349° North 262 302 19,400 -1,488 Descending Chicago Center
Thu 04:20:08 PM 43.0275 -89.6650 349° North 317 365 17,600 -2,033 Descending Chicago Center
Thu 04:21:08 PM 43.1064 -89.6853 360° North 302 348 15,300 -2,300 Descending Chicago Center
Thu 04:22:08 PM 43.1858 -89.6858 North 282 325 13,000 -2,350 Descending Chicago Center
Thu 04:23:08 PM 43.2586 -89.6747 18° North 271 312 10,600 -2,420 Descending Chicago Center
Thu 04:24:07 PM 43.3294 -89.6439 353° North 271 312 8,200 -2,300 Descending Chicago Center
Thu 04:25:08 PM 43.3942 -89.6556 334° Northwest 241 277 6,000 -1,736 Descending Chicago Center
Thu 04:26:08 PM 43.4544 -89.6958 334° Northwest 218 251 4,700 -1,300 Descending Chicago Center

Login

Don't have an account? Register now (free) for customized features, flight alerts, and more!